sensor_id;sensor_type;location;lat;lon;timestamp;pressure;altitude;pressure_sealevel;temperature;humidity
44309;BME280;30022;55.846;37.340;2023-03-23T00:01:06;46902.59;;;-143.51;100.00
44309;BME280;30022;55.846;37.340;2023-03-23T00:03:35;46843.34;;;-143.51;100.00
44309;BME280;30022;55.846;37.340;2023-03-23T00:06:01;46878.88;;;-143.51;100.00
44309;BME280;30022;55.846;37.340;2023-03-23T00:08:33;46884.81;;;-143.51;100.00
44309;BME280;30022;55.846;37.340;2023-03-23T00:11:03;46920.34;;;-143.51;100.00
44309;BME280;30022;55.846;37.340;2023-03-23T00:13:29;46924.31;;;-143.51;100.00
44309;BME280;30022;55.846;37.340;2023-03-23T00:15:55;46898.63;;;-143.51;100.00
44309;BME280;30022;55.846;37.340;2023-03-23T00:18:22;46904.56;;;-143.51;100.00
44309;BME280;30022;55.846;37.340;2023-03-23T00:20:52;46932.22;;;-143.51;100.00
44309;BME280;30022;55.846;37.340;2023-03-23T00:23:19;46926.28;;;-143.51;100.00
44309;BME280;30022;55.846;37.340;2023-03-23T00:25:47;46953.94;;;-143.51;100.00
44309;BME280;30022;55.846;37.340;2023-03-23T00:28:13;46951.97;;;-143.51;100.00
44309;BME280;30022;55.846;37.340;2023-03-23T00:30:39;46967.75;;;-143.51;100.00
44309;BME280;30022;55.846;37.340;2023-03-23T00:33:07;46981.59;;;-143.51;100.00
44309;BME280;30022;55.846;37.340;2023-03-23T00:35:33;46928.25;;;-143.51;100.00
44309;BME280;30022;55.846;37.340;2023-03-23T00:38:00;46949.97;;;-143.51;100.00
44309;BME280;30022;55.846;37.340;2023-03-23T00:40:25;46944.06;;;-143.51;100.00
44309;BME280;30022;55.846;37.340;2023-03-23T00:42:52;46916.41;;;-143.51;100.00
44309;BME280;30022;55.846;37.340;2023-03-23T00:45:18;46942.09;;;-143.51;100.00
44309;BME280;30022;55.846;37.340;2023-03-23T00:47:43;46944.06;;;-143.51;100.00
44309;BME280;30022;55.846;37.340;2023-03-23T00:50:12;46924.31;;;-143.51;100.00
44309;BME280;30022;55.846;37.340;2023-03-23T00:52:39;46940.09;;;-143.51;100.00
44309;BME280;30022;55.846;37.340;2023-03-23T00:55:05;46940.09;;;-143.51;100.00
44309;BME280;30022;55.846;37.340;2023-03-23T00:57:31;46924.31;;;-143.51;100.00
44309;BME280;30022;55.846;37.340;2023-03-23T00:59:56;46894.69;;;-143.51;100.00
44309;BME280;30022;55.846;37.340;2023-03-23T01:02:22;46936.16;;;-143.51;100.00
44309;BME280;30022;55.846;37.340;2023-03-23T01:04:50;46924.31;;;-143.51;100.00
44309;BME280;30022;55.846;37.340;2023-03-23T01:07:20;46920.34;;;-143.51;100.00
44309;BME280;30022;55.846;37.340;2023-03-23T01:09:48;46890.72;;;-143.51;100.00
44309;BME280;30022;55.846;37.340;2023-03-23T01:12:14;46934.19;;;-143.51;100.00
44309;BME280;30022;55.846;37.340;2023-03-23T01:14:40;46912.47;;;-143.51;100.00
44309;BME280;30022;55.846;37.340;2023-03-23T01:17:07;46951.97;;;-143.51;100.00
44309;BME280;30022;55.846;37.340;2023-03-23T01:19:33;46930.22;;;-143.51;100.00
44309;BME280;30022;55.846;37.340;2023-03-23T01:22:00;46951.97;;;-143.51;100.00
44309;BME280;30022;55.846;37.340;2023-03-23T01:24:25;46953.94;;;-143.51;100.00
44309;BME280;30022;55.846;37.340;2023-03-23T01:26:51;46928.25;;;-143.51;100.00
44309;BME280;30022;55.846;37.340;2023-03-23T01:29:16;46934.19;;;-143.51;100.00
44309;BME280;30022;55.846;37.340;2023-03-23T01:31:42;46944.06;;;-143.51;100.00
44309;BME280;30022;55.846;37.340;2023-03-23T01:34:08;46948.00;;;-143.51;100.00
44309;BME280;30022;55.846;37.340;2023-03-23T01:36:36;46926.28;;;-143.51;100.00
44309;BME280;30022;55.846;37.340;2023-03-23T01:39:03;46928.25;;;-143.51;100.00
44309;BME280;30022;55.846;37.340;2023-03-23T01:41:30;46930.22;;;-143.51;100.00
44309;BME280;30022;55.846;37.340;2023-03-23T01:46:44;46942.09;;;-143.51;100.00
44309;BME280;30022;55.846;37.340;2023-03-23T01:49:11;46949.97;;;-143.51;100.00
44309;BME280;30022;55.846;37.340;2023-03-23T01:51:40;46898.63;;;-143.51;100.00
44309;BME280;30022;55.846;37.340;2023-03-23T01:54:09;46902.59;;;-143.51;100.00
44309;BME280;30022;55.846;37.340;2023-03-23T01:56:38;46918.38;;;-143.51;100.00
44309;BME280;30022;55.846;37.340;2023-03-23T01:59:07;46961.84;;;-143.51;100.00
44309;BME280;30022;55.846;37.340;2023-03-23T02:01:33;46946.03;;;-143.51;100.00
44309;BME280;30022;55.846;37.340;2023-03-23T02:04:03;46918.38;;;-143.51;100.00
44309;BME280;30022;55.846;37.340;2023-03-23T02:06:30;46920.34;;;-143.51;100.00
44309;BME280;30022;55.846;37.340;2023-03-23T02:09:16;46963.81;;;-143.51;100.00
44309;BME280;30022;55.846;37.340;2023-03-23T02:11:47;46957.88;;;-143.51;100.00
44309;BME280;30022;55.846;37.340;2023-03-23T02:14:15;46942.09;;;-143.51;100.00
44309;BME280;30022;55.846;37.340;2023-03-23T02:34:59;46946.03;;;-143.51;100.00
44309;BME280;30022;55.846;37.340;2023-03-23T02:37:48;46924.31;;;-143.51;100.00
44309;BME280;30022;55.846;37.340;2023-03-23T02:42:42;46959.84;;;-143.51;100.00
44309;BME280;30022;55.846;37.340;2023-03-23T02:45:10;46965.78;;;-143.51;100.00
44309;BME280;30022;55.846;37.340;2023-03-23T02:47:37;46932.22;;;-143.51;100.00
44309;BME280;30022;55.846;37.340;2023-03-23T02:50:03;46953.94;;;-143.51;100.00
44309;BME280;30022;55.846;37.340;2023-03-23T02:52:31;46948.00;;;-143.51;100.00
44309;BME280;30022;55.846;37.340;2023-03-23T02:54:58;46948.00;;;-143.51;100.00
44309;BME280;30022;55.846;37.340;2023-03-23T02:57:26;46973.69;;;-143.51;100.00
44309;BME280;30022;55.846;37.340;2023-03-23T02:59:54;46955.91;;;-143.51;100.00
44309;BME280;30022;55.846;37.340;2023-03-23T03:02:23;46967.75;;;-143.51;100.00
44309;BME280;30022;55.846;37.340;2023-03-23T03:05:17;46971.72;;;-143.51;100.00
44309;BME280;30022;55.846;37.340;2023-03-23T03:07:40;46965.78;;;-143.51;100.00
44309;BME280;30022;55.846;37.340;2023-03-23T03:10:29;46957.88;;;-143.51;100.00
44309;BME280;30022;55.846;37.340;2023-03-23T03:13:02;46987.50;;;-143.51;100.00
44309;BME280;30022;55.846;37.340;2023-03-23T03:18:06;46991.47;;;-143.51;100.00
44309;BME280;30022;55.846;37.340;2023-03-23T03:20:35;46993.44;;;-143.51;100.00
44309;BME280;30022;55.846;37.340;2023-03-23T03:23:03;46953.94;;;-143.51;100.00
44309;BME280;30022;55.846;37.340;2023-03-23T03:25:30;46985.53;;;-143.51;100.00
44309;BME280;30022;55.846;37.340;2023-03-23T03:27:56;46985.53;;;-143.51;100.00
44309;BME280;30022;55.846;37.340;2023-03-23T03:30:39;46973.69;;;-143.51;100.00
44309;BME280;30022;55.846;37.340;2023-03-23T03:33:06;46985.53;;;-143.51;100.00
44309;BME280;30022;55.846;37.340;2023-03-23T03:35:31;46981.59;;;-143.51;100.00
44309;BME280;30022;55.846;37.340;2023-03-23T03:38:05;46997.38;;;-143.51;100.00
44309;BME280;30022;55.846;37.340;2023-03-23T03:40:31;47011.22;;;-143.51;100.00
44309;BME280;30022;55.846;37.340;2023-03-23T03:42:57;46993.44;;;-143.51;100.00
44309;BME280;30022;55.846;37.340;2023-03-23T03:45:25;46983.56;;;-143.51;100.00
44309;BME280;30022;55.846;37.340;2023-03-23T03:47:50;46993.44;;;-143.51;100.00
44309;BME280;30022;55.846;37.340;2023-03-23T03:50:16;46995.41;;;-143.51;100.00
44309;BME280;30022;55.846;37.340;2023-03-23T03:52:42;47001.34;;;-143.51;100.00
44309;BME280;30022;55.846;37.340;2023-03-23T03:55:09;47015.16;;;-143.51;100.00
44309;BME280;30022;55.846;37.340;2023-03-23T03:57:38;47027.00;;;-143.51;100.00
44309;BME280;30022;55.846;37.340;2023-03-23T04:00:05;46995.41;;;-143.51;100.00
44309;BME280;30022;55.846;37.340;2023-03-23T04:02:41;46991.47;;;-143.51;100.00
44309;BME280;30022;55.846;37.340;2023-03-23T04:05:07;47017.13;;;-143.51;100.00
44309;BME280;30022;55.846;37.340;2023-03-23T04:07:34;47028.97;;;-143.51;100.00
44309;BME280;30022;55.846;37.340;2023-03-23T04:10:04;46995.41;;;-143.51;100.00
44309;BME280;30022;55.846;37.340;2023-03-23T04:12:31;47046.75;;;-143.51;100.00
44309;BME280;30022;55.846;37.340;2023-03-23T04:14:57;47040.84;;;-143.51;100.00
44309;BME280;30022;55.846;37.340;2023-03-23T04:17:32;47025.03;;;-143.51;100.00
44309;BME280;30022;55.846;37.340;2023-03-23T04:19:58;47027.00;;;-143.51;100.00
44309;BME280;30022;55.846;37.340;2023-03-23T04:22:26;47040.84;;;-143.51;100.00
44309;BME280;30022;55.846;37.340;2023-03-23T04:24:59;47048.72;;;-143.51;100.00
44309;BME280;30022;55.846;37.340;2023-03-23T04:27:26;47025.03;;;-143.51;100.00
44309;BME280;30022;55.846;37.340;2023-03-23T04:29:55;47048.72;;;-143.51;100.00
44309;BME280;30022;55.846;37.340;2023-03-23T04:32:46;47048.72;;;-143.51;100.00
44309;BME280;30022;55.846;37.340;2023-03-23T04:35:18;47025.03;;;-143.51;100.00
44309;BME280;30022;55.846;37.340;2023-03-23T04:37:52;47042.81;;;-143.51;100.00
44309;BME280;30022;55.846;37.340;2023-03-23T04:40:19;47044.78;;;-143.51;100.00
44309;BME280;30022;55.846;37.340;2023-03-23T04:42:55;47021.09;;;-143.51;100.00
44309;BME280;30022;55.846;37.340;2023-03-23T04:46:01;47007.25;;;-143.51;100.00
44309;BME280;30022;55.846;37.340;2023-03-23T04:48:30;47025.03;;;-143.51;100.00
44309;BME280;30022;55.846;37.340;2023-03-23T04:51:25;47064.53;;;-143.51;100.00
44309;BME280;30022;55.846;37.340;2023-03-23T04:53:53;47082.31;;;-143.51;100.00
44309;BME280;30022;55.846;37.340;2023-03-23T04:56:19;47062.56;;;-143.51;100.00
44309;BME280;30022;55.846;37.340;2023-03-23T04:58:46;47007.25;;;-143.51;100.00
44309;BME280;30022;55.846;37.340;2023-03-23T05:01:32;47086.25;;;-143.51;100.00
44309;BME280;30022;55.846;37.340;2023-03-23T05:04:14;47072.44;;;-143.51;100.00
44309;BME280;30022;55.846;37.340;2023-03-23T05:06:44;47060.59;;;-143.51;100.00
44309;BME280;30022;55.846;37.340;2023-03-23T05:09:16;47064.53;;;-143.51;100.00
44309;BME280;30022;55.846;37.340;2023-03-23T05:11:42;47084.28;;;-143.51;100.00
44309;BME280;30022;55.846;37.340;2023-03-23T05:14:09;47050.72;;;-143.51;100.00
44309;BME280;30022;55.846;37.340;2023-03-23T05:16:35;47068.47;;;-143.51;100.00
44309;BME280;30022;55.846;37.340;2023-03-23T05:19:03;47052.69;;;-143.51;100.00
44309;BME280;30022;55.846;37.340;2023-03-23T05:21:31;47056.63;;;-143.51;100.00
44309;BME280;30022;55.846;37.340;2023-03-23T05:23:57;47064.53;;;-143.51;100.00
44309;BME280;30022;55.846;37.340;2023-03-23T05:26:26;47094.16;;;-143.51;100.00
44309;BME280;30022;55.846;37.340;2023-03-23T05:29:02;47050.72;;;-143.51;100.00
44309;BME280;30022;55.846;37.340;2023-03-23T05:31:52;47028.97;;;-143.51;100.00
44309;BME280;30022;55.846;37.340;2023-03-23T05:34:19;47030.97;;;-143.51;100.00
44309;BME280;30022;55.846;37.340;2023-03-23T05:36:48;47009.22;;;-143.51;100.00
44309;BME280;30022;55.846;37.340;2023-03-23T05:39:32;47017.13;;;-143.51;100.00
44309;BME280;30022;55.846;37.340;2023-03-23T05:42:21;47023.06;;;-143.51;100.00
44309;BME280;30022;55.846;37.340;2023-03-23T05:44:53;46993.44;;;-143.51;100.00
44309;BME280;30022;55.846;37.340;2023-03-23T05:47:19;47007.25;;;-143.51;100.00
44309;BME280;30022;55.846;37.340;2023-03-23T05:49:51;47027.00;;;-143.51;100.00
44309;BME280;30022;55.846;37.340;2023-03-23T05:52:22;46930.22;;;-143.51;100.00
44309;BME280;30022;55.846;37.340;2023-03-23T05:54:50;46953.94;;;-143.51;100.00
44309;BME280;30022;55.846;37.340;2023-03-23T05:57:18;46973.69;;;-143.51;100.00
44309;BME280;30022;55.846;37.340;2023-03-23T05:59:47;46979.59;;;-143.51;100.00
44309;BME280;30022;55.846;37.340;2023-03-23T06:02:20;46967.75;;;-143.51;100.00
44309;BME280;30022;55.846;37.340;2023-03-23T06:04:45;46969.72;;;-143.51;100.00
44309;BME280;30022;55.846;37.340;2023-03-23T06:07:17;46975.66;;;-143.51;100.00
44309;BME280;30022;55.846;37.340;2023-03-23T06:09:52;46949.97;;;-143.51;100.00
44309;BME280;30022;55.846;37.340;2023-03-23T06:12:24;46971.72;;;-143.51;100.00
44309;BME280;30022;55.846;37.340;2023-03-23T06:15:16;47001.34;;;-143.51;100.00
44309;BME280;30022;55.846;37.340;2023-03-23T06:18:01;46951.97;;;-143.51;100.00
44309;BME280;30022;55.846;37.340;2023-03-23T06:20:48;46928.25;;;-143.51;100.00
44309;BME280;30022;55.846;37.340;2023-03-23T06:23:23;46957.88;;;-143.51;100.00
44309;BME280;30022;55.846;37.340;2023-03-23T06:25:53;46955.91;;;-143.51;100.00
44309;BME280;30022;55.846;37.340;2023-03-23T06:28:19;46995.41;;;-143.51;100.00
44309;BME280;30022;55.846;37.340;2023-03-23T06:30:47;46948.00;;;-143.51;100.00
44309;BME280;30022;55.846;37.340;2023-03-23T06:33:13;46934.19;;;-143.51;100.00
44309;BME280;30022;55.846;37.340;2023-03-23T06:36:04;46930.22;;;-143.51;100.00
44309;BME280;30022;55.846;37.340;2023-03-23T06:38:45;46942.09;;;-143.51;100.00
44309;BME280;30022;55.846;37.340;2023-03-23T06:41:13;46910.47;;;-143.51;100.00
44309;BME280;30022;55.846;37.340;2023-03-23T06:43:39;46912.47;;;-143.51;100.00
44309;BME280;30022;55.846;37.340;2023-03-23T06:46:13;46904.56;;;-143.51;100.00
44309;BME280;30022;55.846;37.340;2023-03-23T06:48:39;46878.88;;;-143.51;100.00
44309;BME280;30022;55.846;37.340;2023-03-23T06:51:05;46904.56;;;-143.51;100.00
44309;BME280;30022;55.846;37.340;2023-03-23T06:53:33;46876.91;;;-143.51;100.00
44309;BME280;30022;55.846;37.340;2023-03-23T06:55:59;46898.63;;;-143.51;100.00
44309;BME280;30022;55.846;37.340;2023-03-23T06:58:26;46930.22;;;-143.51;100.00
44309;BME280;30022;55.846;37.340;2023-03-23T07:00:55;46942.09;;;-143.51;100.00
44309;BME280;30022;55.846;37.340;2023-03-23T07:03:26;46934.19;;;-143.51;100.00
44309;BME280;30022;55.846;37.340;2023-03-23T07:05:53;46928.25;;;-143.51;100.00
44309;BME280;30022;55.846;37.340;2023-03-23T07:08:21;46920.34;;;-143.51;100.00
44309;BME280;30022;55.846;37.340;2023-03-23T07:10:53;46892.72;;;-143.51;100.00
44309;BME280;30022;55.846;37.340;2023-03-23T07:13:23;46896.66;;;-143.51;100.00
44309;BME280;30022;55.846;37.340;2023-03-23T07:15:53;46946.03;;;-143.51;100.00
44309;BME280;30022;55.846;37.340;2023-03-23T07:18:20;46969.72;;;-143.51;100.00
44309;BME280;30022;55.846;37.340;2023-03-23T07:20:48;46953.94;;;-143.51;100.00
44309;BME280;30022;55.846;37.340;2023-03-23T07:23:15;46870.97;;;-143.51;100.00
44309;BME280;30022;55.846;37.340;2023-03-23T07:25:45;46880.84;;;-143.51;100.00
44309;BME280;30022;55.846;37.340;2023-03-23T07:28:16;46837.41;;;-143.51;100.00
44309;BME280;30022;55.846;37.340;2023-03-23T07:30:42;46833.47;;;-143.51;100.00
44309;BME280;30022;55.846;37.340;2023-03-23T07:33:09;46865.06;;;-143.51;100.00
44309;BME280;30022;55.846;37.340;2023-03-23T07:35:35;46863.09;;;-143.51;100.00
44309;BME280;30022;55.846;37.340;2023-03-23T07:38:08;46851.22;;;-143.51;100.00
44309;BME280;30022;55.846;37.340;2023-03-23T07:40:35;46843.34;;;-143.51;100.00
44309;BME280;30022;55.846;37.340;2023-03-23T07:43:06;46823.59;;;-143.51;100.00
44309;BME280;30022;55.846;37.340;2023-03-23T07:45:51;46813.72;;;-143.51;100.00
44309;BME280;30022;55.846;37.340;2023-03-23T07:48:17;46843.34;;;-143.51;100.00
44309;BME280;30022;55.846;37.340;2023-03-23T07:50:43;46837.41;;;-143.51;100.00
44309;BME280;30022;55.846;37.340;2023-03-23T07:53:11;46815.69;;;-143.51;100.00
44309;BME280;30022;55.846;37.340;2023-03-23T07:55:37;46776.19;;;-143.51;100.00
44309;BME280;30022;55.846;37.340;2023-03-23T07:58:08;46821.59;;;-143.51;100.00
44309;BME280;30022;55.846;37.340;2023-03-23T08:00:34;46827.53;;;-143.51;100.00
44309;BME280;30022;55.846;37.340;2023-03-23T08:03:04;46823.59;;;-143.51;100.00
44309;BME280;30022;55.846;37.340;2023-03-23T08:05:36;46791.97;;;-143.51;100.00
44309;BME280;30022;55.846;37.340;2023-03-23T08:08:20;46837.41;;;-143.51;100.00
44309;BME280;30022;55.846;37.340;2023-03-23T08:10:52;46799.88;;;-143.51;100.00
44309;BME280;30022;55.846;37.340;2023-03-23T08:13:37;46780.13;;;-143.51;100.00
44309;BME280;30022;55.846;37.340;2023-03-23T08:16:23;46823.59;;;-143.51;100.00
44309;BME280;30022;55.846;37.340;2023-03-23T08:19:08;46793.97;;;-143.51;100.00
44309;BME280;30022;55.846;37.340;2023-03-23T08:21:47;46815.69;;;-143.51;100.00
44309;BME280;30022;55.846;37.340;2023-03-23T08:24:25;46797.91;;;-143.51;100.00
44309;BME280;30022;55.846;37.340;2023-03-23T08:27:11;46817.66;;;-143.51;100.00
44309;BME280;30022;55.846;37.340;2023-03-23T08:29:49;46799.88;;;-143.51;100.00
44309;BME280;30022;55.846;37.340;2023-03-23T08:32:35;46813.72;;;-143.51;100.00
44309;BME280;30022;55.846;37.340;2023-03-23T08:35:19;46799.88;;;-143.51;100.00
44309;BME280;30022;55.846;37.340;2023-03-23T08:38:11;46805.81;;;-143.51;100.00
44309;BME280;30022;55.846;37.340;2023-03-23T08:40:59;46845.31;;;-143.51;100.00
44309;BME280;30022;55.846;37.340;2023-03-23T08:43:48;46772.22;;;-143.51;100.00
44309;BME280;30022;55.846;37.340;2023-03-23T08:46:28;46788.03;;;-143.51;100.00
44309;BME280;30022;55.846;37.340;2023-03-23T08:49:14;46780.13;;;-143.51;100.00
44309;BME280;30022;55.846;37.340;2023-03-23T08:52:02;46795.94;;;-143.51;100.00
44309;BME280;30022;55.846;37.340;2023-03-23T08:54:51;46835.44;;;-143.51;100.00
44309;BME280;30022;55.846;37.340;2023-03-23T08:57:45;46847.28;;;-143.51;100.00
44309;BME280;30022;55.846;37.340;2023-03-23T09:00:28;46827.53;;;-143.51;100.00
44309;BME280;30022;55.846;37.340;2023-03-23T09:03:07;46821.59;;;-143.51;100.00
44309;BME280;30022;55.846;37.340;2023-03-23T09:05:53;46821.59;;;-143.51;100.00
44309;BME280;30022;55.846;37.340;2023-03-23T09:08:22;46815.69;;;-143.51;100.00
44309;BME280;30022;55.846;37.340;2023-03-23T09:10:48;46805.81;;;-143.51;100.00
44309;BME280;30022;55.846;37.340;2023-03-23T09:13:15;46821.59;;;-143.51;100.00
44309;BME280;30022;55.846;37.340;2023-03-23T09:15:40;46839.38;;;-143.51;100.00
44309;BME280;30022;55.846;37.340;2023-03-23T09:18:06;46801.84;;;-143.51;100.00
44309;BME280;30022;55.846;37.340;2023-03-23T09:20:32;46819.63;;;-143.51;100.00
44309;BME280;30022;55.846;37.340;2023-03-23T09:22:58;46813.72;;;-143.51;100.00
44309;BME280;30022;55.846;37.340;2023-03-23T09:25:24;46791.97;;;-143.51;98.53
44309;BME280;30022;55.846;37.340;2023-03-23T09:27:51;46791.97;;;-143.51;100.00
44309;BME280;30022;55.846;37.340;2023-03-23T09:30:19;46764.34;;;-143.51;98.04
44309;BME280;30022;55.846;37.340;2023-03-23T09:32:45;46786.06;;;-143.51;98.76
44309;BME280;30022;55.846;37.340;2023-03-23T09:35:11;46801.84;;;-143.51;100.00
44309;BME280;30022;55.846;37.340;2023-03-23T09:37:40;46791.97;;;-143.51;99.40
44309;BME280;30022;55.846;37.340;2023-03-23T09:40:09;46786.06;;;-143.51;99.87
44309;BME280;30022;55.846;37.340;2023-03-23T09:45:10;46797.91;;;-143.51;100.00
44309;BME280;30022;55.846;37.340;2023-03-23T09:47:48;46799.88;;;-143.51;97.22
44309;BME280;30022;55.846;37.340;2023-03-23T09:50:19;46791.97;;;-143.51;98.94
44309;BME280;30022;55.846;37.340;2023-03-23T09:55:11;46809.75;;;-143.51;98.00
44309;BME280;30022;55.846;37.340;2023-03-23T09:58:22;46791.97;;;-143.51;94.29
44309;BME280;30022;55.846;37.340;2023-03-23T10:03:06;46803.84;;;-143.51;94.65
44309;BME280;30022;55.846;37.340;2023-03-23T10:05:39;46807.78;;;-143.51;94.19
44309;BME280;30022;55.846;37.340;2023-03-23T10:08:09;46780.13;;;-143.51;91.99
44309;BME280;30022;55.846;37.340;2023-03-23T10:10:42;46797.91;;;-143.51;94.83
44309;BME280;30022;55.846;37.340;2023-03-23T10:13:23;46774.22;;;-143.51;94.33
44309;BME280;30022;55.846;37.340;2023-03-23T10:15:51;46776.19;;;-143.51;90.82
44309;BME280;30022;55.846;37.340;2023-03-23T10:18:20;46784.09;;;-143.51;92.92
44309;BME280;30022;55.846;37.340;2023-03-23T10:20:50;46778.16;;;-143.51;91.95
44309;BME280;30022;55.846;37.340;2023-03-23T10:28:51;46801.84;;;-143.51;92.94
44309;BME280;30022;55.846;37.340;2023-03-23T10:31:29;46803.84;;;-143.51;90.86
44309;BME280;30022;55.846;37.340;2023-03-23T10:33:58;46807.78;;;-143.51;90.97
44309;BME280;30022;55.846;37.340;2023-03-23T10:36:26;46791.97;;;-143.51;89.94
44309;BME280;30022;55.846;37.340;2023-03-23T10:38:58;46780.13;;;-143.51;89.04
44309;BME280;30022;55.846;37.340;2023-03-23T10:41:25;46754.47;;;-143.51;87.25
44309;BME280;30022;55.846;37.340;2023-03-23T10:43:50;46799.88;;;-143.51;90.91
44309;BME280;30022;55.846;37.340;2023-03-23T10:46:33;46803.84;;;-143.51;91.45
44309;BME280;30022;55.846;37.340;2023-03-23T10:49:02;46807.78;;;-143.51;91.61
44309;BME280;30022;55.846;37.340;2023-03-23T10:51:35;46827.53;;;-143.51;95.07
44309;BME280;30022;55.846;37.340;2023-03-23T10:54:02;46797.91;;;-143.51;91.04
44309;BME280;30022;55.846;37.340;2023-03-23T10:56:35;46823.59;;;-143.51;86.59
44309;BME280;30022;55.846;37.340;2023-03-23T10:59:10;46805.81;;;-143.51;87.25
44309;BME280;30022;55.846;37.340;2023-03-23T11:01:36;46801.84;;;-143.51;87.18
44309;BME280;30022;55.846;37.340;2023-03-23T11:04:02;46790.00;;;-143.51;86.25
44309;BME280;30022;55.846;37.340;2023-03-23T11:06:30;46799.88;;;-143.51;85.99
44309;BME280;30022;55.846;37.340;2023-03-23T11:09:33;46811.72;;;-143.51;85.24
44309;BME280;30022;55.846;37.340;2023-03-23T11:11:52;46774.22;;;-143.51;84.58
44309;BME280;30022;55.846;37.340;2023-03-23T11:16:53;46793.97;;;-143.51;84.21
44309;BME280;30022;55.846;37.340;2023-03-23T11:19:27;46791.97;;;-143.51;85.05
44309;BME280;30022;55.846;37.340;2023-03-23T11:21:55;46807.78;;;-143.51;85.18
44309;BME280;30022;55.846;37.340;2023-03-23T11:24:24;46790.00;;;-143.51;85.51
44309;BME280;30022;55.846;37.340;2023-03-23T11:26:50;46784.09;;;-143.51;84.33
44309;BME280;30022;55.846;37.340;2023-03-23T11:29:20;46776.19;;;-143.51;83.35
44309;BME280;30022;55.846;37.340;2023-03-23T11:31:49;46799.88;;;-143.51;85.61
44309;BME280;30022;55.846;37.340;2023-03-23T11:36:46;46843.34;;;-143.51;88.52
44309;BME280;30022;55.846;37.340;2023-03-23T11:41:51;46795.94;;;-143.51;83.96
44309;BME280;30022;55.846;37.340;2023-03-23T11:44:17;46803.84;;;-143.51;84.45
44309;BME280;30022;55.846;37.340;2023-03-23T11:46:52;46791.97;;;-143.51;85.17
44309;BME280;30022;55.846;37.340;2023-03-23T11:52:50;46827.53;;;-143.51;85.77
44309;BME280;30022;55.846;37.340;2023-03-23T11:57:40;46843.34;;;-143.51;89.93
44309;BME280;30022;55.846;37.340;2023-03-23T12:00:16;46797.91;;;-143.51;84.90
44309;BME280;30022;55.846;37.340;2023-03-23T12:15:48;46790.00;;;-143.51;87.80
44309;BME280;30022;55.846;37.340;2023-03-23T12:26:14;46803.84;;;-143.51;86.01
44309;BME280;30022;55.846;37.340;2023-03-23T12:31:22;46827.53;;;-143.51;88.99
44309;BME280;30022;55.846;37.340;2023-03-23T12:36:42;46803.84;;;-143.51;86.51
44309;BME280;30022;55.846;37.340;2023-03-23T12:39:25;46815.69;;;-143.51;87.60
44309;BME280;30022;55.846;37.340;2023-03-23T12:42:40;46797.91;;;-143.51;86.29
44309;BME280;30022;55.846;37.340;2023-03-23T12:44:48;46774.22;;;-143.51;85.31
44309;BME280;30022;55.846;37.340;2023-03-23T12:49:44;46795.94;;;-143.51;86.78
44309;BME280;30022;55.846;37.340;2023-03-23T12:52:18;46811.72;;;-143.51;89.73
44309;BME280;30022;55.846;37.340;2023-03-23T12:54:51;46788.03;;;-143.51;84.65
44309;BME280;30022;55.846;37.340;2023-03-23T13:00:19;46805.81;;;-143.51;88.55
44309;BME280;30022;55.846;37.340;2023-03-23T13:05:24;46823.59;;;-143.51;88.96
44309;BME280;30022;55.846;37.340;2023-03-23T13:10:50;46795.94;;;-143.51;87.43
44309;BME280;30022;55.846;37.340;2023-03-23T13:13:24;46803.84;;;-143.51;88.55
44309;BME280;30022;55.846;37.340;2023-03-23T13:15:55;46817.66;;;-143.51;89.78
44309;BME280;30022;55.846;37.340;2023-03-23T13:18:44;46791.97;;;-143.51;88.29
44309;BME280;30022;55.846;37.340;2023-03-23T13:23:45;46825.56;;;-143.51;90.25
44309;BME280;30022;55.846;37.340;2023-03-23T13:26:16;46801.84;;;-143.51;90.96
44309;BME280;30022;55.846;37.340;2023-03-23T13:31:25;46782.09;;;-143.51;90.61
44309;BME280;30022;55.846;37.340;2023-03-23T13:34:00;46829.50;;;-143.51;89.97
44309;BME280;30022;55.846;37.340;2023-03-23T13:36:28;46833.47;;;-143.51;91.88
44309;BME280;30022;55.846;37.340;2023-03-23T13:38:54;46803.84;;;-143.51;91.44
44309;BME280;30022;55.846;37.340;2023-03-23T13:41:22;46801.84;;;-143.51;89.48
44309;BME280;30022;55.846;37.340;2023-03-23T13:43:47;46815.69;;;-143.51;89.67
44309;BME280;30022;55.846;37.340;2023-03-23T13:48:49;46807.78;;;-143.51;91.78
44309;BME280;30022;55.846;37.340;2023-03-23T13:56:46;46801.84;;;-143.51;89.61
44309;BME280;30022;55.846;37.340;2023-03-23T13:59:13;46799.88;;;-143.51;90.77
44309;BME280;30022;55.846;37.340;2023-03-23T14:01:40;46819.63;;;-143.51;90.10
44309;BME280;30022;55.846;37.340;2023-03-23T14:04:09;46827.53;;;-143.51;94.69
44309;BME280;30022;55.846;37.340;2023-03-23T14:06:35;46790.00;;;-143.51;92.38
44309;BME280;30022;55.846;37.340;2023-03-23T14:11:56;46803.84;;;-143.51;91.93
44309;BME280;30022;55.846;37.340;2023-03-23T14:14:24;46797.91;;;-143.51;90.65
44309;BME280;30022;55.846;37.340;2023-03-23T14:16:51;46778.16;;;-143.51;92.79
44309;BME280;30022;55.846;37.340;2023-03-23T14:19:24;46809.75;;;-143.51;96.56
44309;BME280;30022;55.846;37.340;2023-03-23T14:21:54;46795.94;;;-143.51;92.04
44309;BME280;30022;55.846;37.340;2023-03-23T14:24:24;46782.09;;;-143.51;93.67
44309;BME280;30022;55.846;37.340;2023-03-23T14:26:51;46795.94;;;-143.51;92.59
44309;BME280;30022;55.846;37.340;2023-03-23T14:29:20;46811.72;;;-143.51;92.47